Date,TemperatureHighF,TemperatureAvgF,TemperatureLowF,DewpointHighF,DewpointAvgF,DewpointLowF,HumidityHigh,HumidityAvg,HumidityLow,PressureMaxIn,PressureMinIn,WindSpeedMaxMPH,WindSpeedAvgMPH,GustSpeedMaxMPH,PrecipitationSumIn
2013-1-1,57.9,52.7,48.2,50.0,47.1,45.0,93,82,64,30.16,30.04,10,3,15,0.00
2013-1-2,54.9,49.3,45.2,48.0,45.1,39.0,97,86,66,30.36,30.12,22,4,31,0.10
2013-1-3,56.5,52.1,47.6,52.0,47.8,38.0,95,85,64,30.66,30.35,28,12,37,0.02
2013-1-4,61.3,49.3,36.7,51.0,43.8,36.0,98,83,53,30.66,30.52,11,3,14,0.01
2013-1-5,63.8,51.3,41.3,53.0,47.3,41.0,99,87,58,30.52,30.30,11,3,13,0.01
2013-1-6,62.8,49.5,38.2,51.0,42.7,38.0,99,80,46,30.37,30.29,13,2,15,0.01
2013-1-7,66.8,51.3,37.8,55.0,47.7,37.0,99,89,57,30.31,30.20,12,3,14,0.01
2013-1-8,64.5,48.8,38.1,56.0,46.5,38.0,99,92,65,30.36,30.29,7,1,9,0.02
2013-1-9,58.6,48.2,40.1,54.0,45.1,40.0,99,90,68,30.32,30.16,17,4,18,0.02
2013-1-10,63.2,53.5,45.0,51.0,47.2,42.0,95,81,52,30.17,30.10,17,4,20,0.00
2013-1-11,59.3,50.2,42.7,51.0,46.1,41.0,97,86,68,30.18,30.11,10,2,14,0.00
2013-1-12,59.7,47.8,35.7,52.0,44.1,35.0,99,88,66,30.17,29.99,12,3,17,0.02
2013-1-13,55.3,51.2,42.5,51.0,43.4,36.0,95,76,52,29.98,29.79,25,7,31,0.00
2013-1-14,54.7,45.3,36.1,44.0,38.6,34.0,93,78,51,30.03,29.94,12,3,19,0.00
2013-1-15,57.0,47.0,35.8,46.0,39.9,34.0,95,77,54,30.00,29.82,27,7,30,0.00
2013-1-16,57.5,52.7,42.0,48.0,44.7,37.0,84,74,62,29.96,29.66,25,10,28,0.00
2013-1-17,57.7,48.7,40.8,50.0,43.2,39.0,93,82,68,29.86,29.65,12,4,18,0.03
2013-1-18,59.9,52.1,38.9,55.0,47.4,37.0,96,84,65,29.82,29.54,15,4,24,0.01
2013-1-19,62.3,58.5,51.8,56.0,53.9,50.0,96,85,65,29.53,29.13,32,15,37,0.12
2013-1-20,56.0,50.9,44.9,51.0,45.1,39.0,95,81,68,29.64,29.14,19,6,30,0.06
2013-1-21,57.2,51.3,44.3,50.0,42.4,35.0,89,72,59,29.89,29.57,23,6,29,0.00
2013-1-22,55.1,47.8,39.5,47.0,38.0,33.0,87,70,55,29.90,29.59,27,9,36,0.02
2013-1-23,50.2,47.1,42.0,42.0,38.1,35.0,89,71,61,29.82,29.56,35,11,52,0.00
2013-1-24,51.4,47.9,42.6,48.0,41.4,32.0,95,79,51,29.83,29.59,19,6,29,0.52
2013-1-25,55.7,45.1,37.9,43.0,38.6,36.0,96,80,48,29.95,29.80,20,5,28,0.06
2013-1-26,53.9,47.4,40.1,49.0,43.5,37.0,94,86,70,30.14,29.79,18,5,28,0.06
2013-1-27,59.9,50.7,40.8,54.0,47.4,40.0,98,89,64,30.14,29.88,15,5,22,0.01
2013-1-28,58.3,52.5,43.8,53.0,45.0,38.0,96,77,47,30.36,29.86,27,10,43,0.17
2013-1-29,60.5,48.5,37.3,52.0,44.5,36.0,97,86,66,30.41,30.35,11,2,13,0.00
2013-1-30,64.8,49.8,38.8,53.0,45.7,38.0,99,87,47,30.39,30.29,14,4,16,0.02
2013-1-31,67.8,53.3,41.9,55.0,48.5,41.0,99,86,55,30.47,30.37,12,3,14,0.01
2013-2-1,63.0,54.1,48.5,58.0,52.0,48.0,100,93,71,30.37,29.81,20,9,24,0.01
2013-2-2,58.8,52.8,45.3,50.0,43.6,37.0,90,71,60,29.86,29.63,25,10,38,0.06
2013-2-3,50.2,46.9,37.7,37.0,32.2,27.0,80,58,43,30.34,29.86,32,11,43,0.00
2013-2-4,58.5,46.7,35.6,43.0,37.5,30.0,85,71,50,30.40,30.31,15,5,18,0.00
2013-2-5,62.5,52.6,45.1,52.0,46.6,41.0,97,81,55,30.32,29.98,17,6,20,0.00
2013-2-6,54.6,50.9,46.0,50.0,39.9,35.0,95,68,49,29.97,29.77,30,10,37,0.00
2013-2-7,50.8,46.2,38.3,40.0,33.2,25.0,91,62,40,30.09,29.82,29,8,41,0.20
2013-2-8,52.4,44.2,35.5,41.0,36.9,30.0,90,76,56,30.09,29.89,19,3,23,0.01
2013-2-9,48.0,44.4,38.4,40.0,33.4,29.0,89,67,49,30.19,30.01,27,10,34,0.00
2013-2-10,58.1,50.7,38.4,50.0,41.5,35.0,87,72,48,30.15,29.72,25,12,31,0.00
2013-2-11,56.2,50.5,46.4,50.0,38.8,33.0,85,65,48,29.74,29.63,28,10,30,0.00
2013-2-12,52.4,47.9,41.0,42.0,36.3,30.0,86,66,45,29.98,29.66,25,8,33,0.02
2013-2-13,53.4,45.9,37.6,44.0,40.6,35.0,94,82,69,30.16,29.96,11,3,14,0.00
2013-2-14,59.4,47.8,36.6,48.0,42.6,35.0,96,84,59,30.23,30.16,14,2,15,0.00
2013-2-15,60.0,50.5,41.6,53.0,45.6,41.0,99,84,63,30.21,30.11,15,4,18,0.01
2013-2-16,58.9,50.7,42.8,49.0,44.4,41.0,94,80,59,30.21,30.12,11,2,12,0.00
2013-2-17,57.0,50.5,42.0,50.0,47.0,41.0,96,88,76,30.13,29.95,9,2,14,0.00
2013-2-18,60.3,52.7,47.9,53.0,49.7,46.0,96,89,70,30.00,29.90,8,1,12,0.02
2013-2-19,55.9,51.4,43.8,51.0,46.5,39.0,97,84,69,30.02,29.94,12,4,16,0.01
2013-2-20,58.6,50.3,43.5,45.0,41.3,35.0,92,73,42,29.97,29.89,8,2,11,0.00
2013-2-21,62.8,50.3,36.2,55.0,45.9,36.0,98,86,57,29.94,29.72,14,4,16,0.00
2013-2-22,58.2,54.6,51.8,53.0,50.5,49.0,95,86,74,29.72,29.52,21,7,28,0.02
2013-2-23,52.4,43.8,35.7,51.0,40.8,34.0,97,89,73,29.89,29.37,23,7,41,0.03
2013-2-24,48.8,41.2,33.7,36.0,33.2,29.0,96,75,48,30.00,29.89,15,3,20,0.03
2013-2-25,43.7,39.7,36.0,39.0,36.4,34.0,94,88,76,30.14,29.98,15,4,19,0.01
2013-2-26,47.9,37.8,32.1,40.0,35.9,31.0,97,93,73,30.22,30.10,15,2,23,0.20
2013-2-27,51.8,41.6,28.8,43.0,35.9,28.0,98,82,58,30.23,30.10,10,3,16,0.01
2013-2-28,54.1,51.5,48.0,51.0,46.8,39.0,96,84,68,30.10,29.82,25,11,29,0.54
2013-3-1,56.2,49.1,44.9,48.0,45.7,40.0,97,89,56,29.83,29.68,41,5,45,0.14
2013-3-2,56.0,51.7,45.1,49.0,46.0,43.0,96,81,69,30.13,29.82,39,12,50,0.00
2013-3-3,57.5,48.5,37.8,50.0,45.2,37.0,98,89,71,30.13,30.00,9,2,13,0.00
2013-3-4,57.9,54.5,48.9,55.0,52.5,48.0,97,93,87,30.00,29.71,20,8,24,0.01
2013-3-5,62.2,58.2,55.5,55.0,54.2,53.0,94,86,74,29.71,29.35,17,9,23,0.02
2013-3-6,64.3,58.6,54.5,56.0,53.8,52.0,96,85,67,29.61,29.31,24,14,33,0.00
2013-3-7,70.1,60.1,54.8,57.0,53.9,51.0,96,81,53,29.75,29.60,24,8,24,0.00
2013-3-8,67.7,61.8,55.4,57.0,51.8,45.0,96,71,45,29.80,29.63,30,13,34,0.00
2013-3-9,68.1,58.9,52.7,54.0,51.0,45.0,98,78,44,29.79,29.72,21,8,29,0.00
2013-3-10,62.1,57.1,52.8,55.0,49.8,43.0,96,78,51,29.75,29.65,32,12,37,0.00
2013-3-11,61.4,55.8,51.1,50.0,47.0,44.0,89,73,53,29.72,29.65,28,10,32,0.00
2013-3-12,61.1,55.6,50.0,48.0,44.5,39.0,88,67,45,29.68,29.56,18,8,24,0.00
2013-3-13,58.3,47.3,40.0,51.0,44.0,39.0,97,89,54,29.65,29.35,40,9,41,0.38
2013-3-14,52.0,45.4,38.8,41.0,37.5,29.0,97,76,44,29.87,29.65,19,8,32,0.05
2013-3-15,54.4,46.5,39.6,40.0,37.0,33.0,91,71,48,30.13,29.86,16,5,20,0.00
2013-3-16,56.0,46.2,33.5,46.0,40.2,32.0,97,80,58,30.13,29.90,12,3,16,0.00
2013-3-17,65.4,53.0,41.3,54.0,48.4,40.0,97,85,50,29.90,29.52,19,5,26,0.02
2013-3-18,62.2,56.9,46.5,55.0,46.1,36.0,96,70,44,29.81,29.49,21,7,30,0.06
2013-3-19,63.0,54.6,45.8,53.0,49.4,40.0,96,83,60,29.81,29.61,12,3,15,0.00
2013-3-20,57.3,53.3,45.8,54.0,49.6,43.0,98,87,71,30.15,29.57,17,6,24,0.00
2013-3-21,63.2,52.4,42.7,53.0,48.3,41.0,97,87,65,30.16,30.00,17,5,19,0.00
2013-3-22,69.2,55.8,42.1,56.0,50.0,41.0,98,83,53,29.99,29.75,14,4,18,0.01
2013-3-23,64.0,57.5,53.1,54.0,52.6,48.0,99,85,58,29.78,29.61,14,5,20,0.02
2013-3-24,62.9,55.4,52.5,53.0,51.8,48.0,97,88,60,29.66,29.53,12,3,13,0.09
2013-3-25,64.9,56.6,47.0,51.0,47.0,41.0,96,73,46,29.77,29.64,23,10,32,0.00
2013-3-26,68.0,61.1,56.1,56.0,52.7,50.0,96,75,55,29.70,29.61,25,9,32,0.03
2013-3-27,66.5,59.3,54.2,56.0,53.3,49.0,97,82,54,29.73,29.59,23,9,30,0.00
2013-3-28,68.3,60.5,55.2,57.0,54.4,51.0,96,82,58,29.89,29.68,22,8,25,0.00
2013-3-29,66.1,59.5,54.5,56.0,53.8,52.0,95,82,65,29.88,29.73,27,9,30,0.00
2013-3-30,68.1,63.2,56.5,54.0,47.1,40.0,92,58,37,29.83,29.63,35,14,41,0.00
2013-3-31,68.3,61.5,54.2,54.0,44.9,39.0,90,56,35,29.82,29.68,16,8,19,0.00
2013-4-1,66.2,59.8,52.7,57.0,51.5,42.0,96,76,48,29.68,29.45,26,11,37,0.02
2013-4-2,64.1,55.4,44.8,52.0,44.8,38.0,93,71,39,29.83,29.67,23,7,24,0.00
2013-4-3,65.4,57.0,44.3,54.0,48.1,42.0,94,75,45,29.84,29.62,15,4,17,0.00
2013-4-4,65.8,58.3,52.6,56.0,50.6,45.0,96,77,47,29.65,29.50,27,7,27,0.00
2013-4-5,62.4,55.0,48.3,54.0,51.1,48.0,98,87,66,29.74,29.61,17,5,23,0.09
2013-4-6,53.7,48.7,44.2,49.0,42.3,35.0,97,80,50,29.98,29.73,21,9,29,0.24
2013-4-7,61.8,53.0,44.8,48.0,42.7,35.0,88,70,39,30.05,29.97,18,5,22,0.00
2013-4-8,63.8,56.7,49.1,52.0,48.5,46.0,96,76,55,29.98,29.85,22,8,30,0.00
2013-4-9,68.6,59.9,51.8,55.0,50.1,41.0,98,73,39,29.98,29.88,31,10,34,0.00
2013-4-10,71.5,60.3,52.9,60.0,54.4,48.0,99,83,46,30.07,29.97,13,4,19,0.00
2013-4-11,68.3,61.1,55.6,60.0,56.7,54.0,96,86,66,30.07,29.88,24,10,28,0.00
2013-4-12,72.2,61.8,51.4,57.0,52.6,47.0,98,75,45,30.11,29.92,15,5,18,0.00
2013-4-13,71.4,58.5,48.2,55.0,50.8,45.0,97,78,39,30.28,30.12,10,2,13,0.00
2013-4-14,70.1,59.3,46.6,53.0,47.8,43.0,98,69,41,30.30,30.25,15,4,19,0.00
2013-4-15,71.4,61.3,49.7,54.0,48.2,43.0,89,65,37,30.27,30.18,13,4,14,0.00
2013-4-16,75.5,61.7,47.8,59.0,53.5,46.0,94,77,45,30.22,30.17,11,2,13,0.00
2013-4-17,78.7,64.6,51.4,58.0,54.3,49.0,96,73,39,30.23,30.17,8,2,11,0.00
2013-4-18,75.0,63.7,51.1,57.0,50.8,47.0,95,66,40,30.21,30.13,10,2,14,0.00
2013-4-19,68.3,59.1,50.5,57.0,50.9,48.0,96,75,59,30.24,30.12,18,7,23,0.00
2013-4-20,62.7,57.3,50.8,48.0,44.9,38.0,82,64,52,30.23,30.13,16,6,20,0.00
2013-4-21,64.3,54.1,44.7,53.0,48.4,42.0,92,82,49,30.18,30.07,15,5,19,0.02
2013-4-22,62.9,55.0,47.9,54.0,45.9,40.0,96,74,46,30.14,30.05,12,2,14,0.00
2013-4-23,63.1,54.3,42.1,53.0,46.4,40.0,93,76,53,30.24,30.13,25,7,31,0.00
2013-4-24,64.3,58.4,51.9,55.0,52.7,49.0,92,82,60,30.23,30.11,20,9,30,0.02
2013-4-25,62.6,60.3,57.5,59.0,56.8,55.0,94,88,77,30.11,29.94,24,13,37,0.26
2013-4-26,64.9,61.0,58.1,60.0,58.1,57.0,97,90,81,29.99,29.82,15,4,16,0.17
2013-4-27,60.6,56.7,52.4,59.0,55.6,51.0,98,96,91,29.84,29.69,14,4,15,0.28
2013-4-28,63.5,56.9,51.8,61.0,55.5,51.0,99,95,86,29.84,29.69,15,5,22,0.73
2013-4-29,58.9,56.4,55.2,59.0,55.7,54.0,99,98,93,29.87,29.71,24,8,25,0.27
2013-4-30,68.9,58.1,48.5,54.0,50.8,47.0,96,78,46,30.04,29.86,16,5,21,0.00
2013-5-1,68.3,58.2,49.5,56.0,51.9,48.0,97,81,57,30.09,30.01,10,3,15,0.00
2013-5-2,68.2,58.1,48.1,56.0,50.9,47.0,96,79,51,30.08,30.01,12,4,17,0.00
2013-5-3,65.3,58.3,49.6,55.0,50.1,47.0,95,76,56,30.12,30.03,15,5,22,0.00
2013-5-4,67.5,58.1,47.2,55.0,49.6,45.0,98,76,46,30.18,30.09,17,5,21,0.00
2013-5-5,70.6,61.2,51.4,56.0,50.7,43.0,96,72,39,30.18,30.11,19,6,23,0.00
2013-5-6,74.4,62.3,48.8,59.0,54.8,48.0,98,79,44,30.17,30.09,13,5,17,0.01
2013-5-7,80.0,66.8,57.1,63.0,58.7,51.0,99,78,41,30.13,30.00,11,5,16,0.01
2013-5-8,83.7,71.0,59.8,61.0,56.2,51.0,80,61,38,30.05,29.95,10,2,13,0.00
2013-5-9,80.1,69.7,61.1,61.0,57.7,51.0,89,68,37,30.04,29.96,15,4,15,0.00
2013-5-10,70.2,64.4,56.3,61.0,54.7,49.0,96,73,49,30.14,29.97,18,6,27,0.00
2013-5-11,68.4,61.5,54.7,55.0,53.6,51.0,89,76,59,30.19,30.10,13,4,15,0.01
2013-5-12,68.2,61.1,51.7,58.0,54.7,50.0,92,80,63,30.22,30.14,17,4,21,0.00
2013-5-13,72.2,61.4,49.4,58.0,53.4,48.0,95,77,50,30.22,30.09,15,4,21,0.00
2013-5-14,68.0,61.4,53.3,59.0,56.4,52.0,96,84,69,30.11,29.77,13,4,18,0.00
2013-5-15,68.1,61.9,55.5,61.0,57.8,54.0,96,87,73,29.77,29.52,14,3,15,0.03
2013-5-16,62.9,58.4,53.0,60.0,54.4,45.0,98,87,60,29.67,29.46,16,4,26,0.16
2013-5-17,67.4,60.2,52.2,57.0,50.6,44.0,88,72,47,29.72,29.59,27,9,35,0.01
2013-5-18,64.9,61.3,56.3,59.0,52.4,43.0,98,74,46,29.92,29.68,29,14,35,0.17
2013-5-19,66.8,61.1,55.2,51.0,47.4,41.0,78,62,39,30.10,29.92,22,9,26,0.00
2013-5-20,65.1,57.8,49.4,54.0,49.7,47.0,91,75,58,30.11,30.06,9,2,16,0.02
2013-5-21,62.2,56.6,49.3,56.0,51.5,47.0,94,83,69,30.10,29.88,19,5,26,0.09
2013-5-22,73.4,63.3,54.4,57.0,52.7,47.0,94,71,40,29.95,29.88,21,8,26,0.03
2013-5-23,68.5,63.2,56.8,57.0,52.4,48.0,88,69,54,29.98,29.91,19,6,25,0.00
2013-5-24,64.1,58.0,50.6,53.0,50.8,48.0,95,78,62,30.08,29.95,17,5,18,0.00
2013-5-25,68.4,58.4,46.9,55.0,47.0,39.0,96,69,37,30.13,30.01,16,5,26,0.00
2013-5-26,64.7,58.7,50.2,52.0,50.1,47.0,91,74,60,30.16,30.02,14,6,18,0.00
2013-5-27,65.9,59.4,50.5,60.0,55.4,49.0,95,86,77,30.05,29.84,13,4,17,0.00
2013-5-28,74.0,64.9,55.9,60.0,55.0,48.0,98,74,40,29.88,29.75,21,8,26,0.01
2013-5-29,67.4,61.3,55.0,56.0,48.9,38.0,92,67,34,29.93,29.83,21,6,24,0.00
2013-5-30,66.6,58.8,49.1,52.0,49.5,44.0,93,73,46,29.99,29.87,13,4,18,0.01
2013-5-31,71.0,62.7,56.1,54.0,51.0,48.0,83,66,51,30.01,29.88,15,6,19,0.00
2013-6-1,77.8,65.7,57.4,57.0,52.6,45.0,89,65,32,30.08,29.96,11,5,15,0.00
2013-6-2,76.8,66.9,53.1,55.0,49.1,45.0,87,57,33,30.10,30.03,19,6,25,0.00
2013-6-3,74.9,65.3,52.9,56.0,52.1,50.0,90,65,42,30.10,30.03,20,6,22,0.00
2013-6-4,76.7,65.9,52.6,58.0,52.9,50.0,93,66,39,30.09,30.00,15,3,23,0.00
2013-6-5,71.7,64.6,55.0,61.0,56.2,52.0,92,76,51,30.04,29.97,14,4,18,0.00
2013-6-6,77.6,66.8,55.2,61.0,55.5,50.0,95,71,38,30.11,30.01,11,3,16,0.00
2013-6-7,78.4,67.9,56.0,62.0,56.3,51.0,92,70,39,30.12,30.02,15,4,17,0.00
2013-6-8,74.8,68.1,62.6,62.0,56.4,45.0,94,69,35,30.07,29.94,19,7,23,0.00
2013-6-9,73.1,66.4,59.6,61.0,55.9,50.0,92,71,47,29.98,29.87,26,10,32,0.00
2013-6-10,72.9,66.8,58.3,61.0,58.7,55.0,92,76,55,30.09,29.93,15,5,19,0.00
2013-6-11,82.3,70.7,58.7,65.0,61.2,57.0,98,74,46,30.12,30.05,20,6,23,0.00
2013-6-12,83.3,73.3,60.5,64.0,58.7,55.0,93,63,42,30.17,30.11,14,4,19,0.00
2013-6-13,85.0,74.5,59.8,63.0,57.3,53.0,83,58,37,30.15,30.05,12,3,15,0.00
2013-6-14,86.3,74.3,63.4,65.0,60.0,54.0,87,64,36,30.10,30.03,12,4,15,0.00
2013-6-15,84.6,74.8,61.3,65.0,56.9,47.0,90,58,27,30.07,30.02,12,4,16,0.00
2013-6-16,83.7,75.5,64.6,66.0,58.3,51.0,85,58,33,30.06,29.93,14,5,20,0.00
2013-6-17,89.1,76.1,66.0,70.0,66.4,61.0,94,74,39,29.93,29.79,13,6,20,0.00
2013-6-18,78.5,72.2,68.2,69.0,66.6,63.0,95,83,67,29.88,29.79,17,7,20,0.00
2013-6-19,81.6,72.3,62.7,64.0,57.1,47.0,91,63,30,30.03,29.86,16,6,19,0.00
2013-6-20,79.5,70.0,58.9,64.0,60.3,56.0,92,73,47,30.11,30.01,14,4,18,0.00
2013-6-21,80.4,71.5,59.9,65.0,59.6,56.0,93,68,44,30.16,30.06,13,4,18,0.00
2013-6-22,76.7,70.3,63.9,66.0,61.7,58.0,89,75,60,30.19,30.12,15,5,19,0.00
2013-6-23,79.6,71.0,59.6,66.0,61.7,58.0,95,75,53,30.19,30.12,14,4,20,0.00
2013-6-24,70.1,68.2,65.6,65.0,59.3,57.0,86,73,65,30.26,30.19,11,6,13,0.00
2013-6-25,73.8,68.6,64.0,59.0,57.7,56.0,79,69,59,30.26,30.20,11,4,15,0.00
2013-6-26,74.4,66.9,58.1,61.0,58.6,55.0,90,75,55,30.26,30.23,11,3,17,0.00
2013-6-27,77.1,67.7,53.3,63.0,54.2,51.0,94,65,42,30.26,30.16,17,5,19,0.00
2013-6-28,77.4,68.0,57.7,59.0,55.9,53.0,86,67,49,30.28,30.20,12,4,20,0.00
2013-6-29,79.5,70.1,57.5,62.0,57.6,54.0,88,66,45,30.28,30.21,14,4,19,0.00
2013-6-30,76.5,70.3,59.7,63.0,59.9,56.0,89,70,56,30.24,30.10,12,4,19,0.00
2013-7-1,81.8,70.9,59.3,66.0,60.9,55.0,89,72,51,30.12,30.00,16,5,19,0.00
2013-7-2,76.8,70.8,63.0,66.0,63.6,60.0,89,78,66,30.08,30.02,11,5,16,0.00
2013-7-3,82.0,70.9,63.7,68.0,65.0,61.0,94,82,56,30.14,30.02,13,3,17,0.00
2013-7-4,80.2,73.7,66.1,68.0,66.3,64.0,92,78,63,30.20,30.11,10,3,13,0.00
2013-7-5,78.4,71.7,62.8,68.0,63.0,60.0,95,76,55,30.24,30.18,20,7,30,0.00
2013-7-6,87.2,74.9,62.4,65.0,62.4,59.0,92,68,42,30.22,30.17,13,3,18,0.00
2013-7-7,88.1,77.7,62.1,69.0,63.4,56.0,91,64,36,30.21,30.13,14,3,15,0.00
2013-7-8,87.5,77.8,67.1,69.0,63.1,57.0,94,65,36,30.16,30.10,14,5,18,0.00
2013-7-9,85.7,77.9,65.6,70.0,64.5,60.0,95,66,43,30.14,30.03,13,4,16,0.00
2013-7-10,86.5,77.6,66.2,69.0,65.4,62.0,88,68,47,30.07,29.92,16,4,18,0.00
2013-7-11,85.0,77.2,71.6,72.0,68.0,63.0,91,75,50,29.98,29.89,13,4,15,0.00
2013-7-12,86.6,77.5,66.2,71.0,65.3,55.0,93,69,37,30.04,29.96,11,4,18,0.00
2013-7-13,81.9,75.4,69.5,71.0,67.1,63.0,93,77,55,30.09,30.01,9,2,12,0.02
2013-7-14,90.1,78.7,65.1,70.0,63.7,57.0,91,64,35,30.12,30.05,15,4,26,0.00
2013-7-15,89.4,79.2,68.5,70.0,66.5,62.0,94,68,43,30.14,30.09,12,4,15,0.00
2013-7-16,87.4,79.5,67.2,69.0,64.8,59.0,84,63,39,30.15,30.08,17,4,21,0.00
2013-7-17,89.7,79.3,67.2,67.0,62.4,57.0,84,59,34,30.15,30.08,11,3,17,0.00
2013-7-18,85.5,77.5,69.3,72.0,66.6,63.0,89,70,48,30.13,30.06,11,3,18,0.00
2013-7-19,84.7,77.3,68.3,72.0,67.5,62.0,94,73,47,30.11,29.99,13,5,18,0.00
2013-7-20,87.3,78.6,68.5,72.0,66.1,59.0,94,68,38,30.02,29.94,15,6,21,0.00
2013-7-21,86.8,78.4,69.2,73.0,67.6,60.0,92,71,41,30.07,29.99,15,5,21,0.00
2013-7-22,87.8,79.5,71.1,74.0,67.6,58.0,93,70,37,30.07,29.99,11,4,16,0.01
2013-7-23,88.7,79.5,68.4,70.0,66.3,62.0,88,66,43,30.02,29.96,13,3,17,0.00
2013-7-24,91.8,81.5,69.7,72.0,67.9,62.0,91,66,39,30.06,30.01,18,4,20,0.00
2013-7-25,92.9,81.3,69.2,73.0,66.6,55.0,90,65,29,30.06,30.00,13,4,17,0.00
2013-7-26,88.9,80.3,69.4,75.0,71.5,66.0,97,76,52,30.01,29.88,14,5,17,0.01
2013-7-27,92.6,84.0,74.8,78.0,74.9,71.0,93,75,53,29.93,29.80,14,6,16,0.00
2013-7-28,95.3,83.1,72.8,76.0,69.9,59.0,96,69,31,30.02,29.84,22,8,24,0.00
2013-7-29,88.0,80.8,74.7,72.0,67.3,56.0,86,66,34,30.23,29.99,15,6,24,0.00
2013-7-30,85.2,78.0,69.0,69.0,65.2,60.0,90,66,47,30.26,30.17,13,3,19,0.00
2013-7-31,89.0,79.1,66.3,71.0,65.7,61.0,86,65,40,30.19,30.04,14,4,17,0.00
2013-8-1,87.5,75.4,64.4,69.0,62.0,55.0,87,66,34,30.07,30.02,11,2,17,0.00
2013-8-2,88.5,78.7,66.9,72.0,66.3,58.0,89,68,36,30.08,30.02,16,4,17,0.00
2013-8-3,90.6,79.4,68.9,74.0,68.3,64.0,91,71,41,30.11,30.03,17,4,21,0.00
2013-8-4,90.0,80.4,68.8,73.0,67.0,61.0,93,67,38,30.14,30.08,15,4,17,0.00
2013-8-5,90.9,79.9,69.0,74.0,67.4,61.0,85,68,37,30.09,29.98,12,4,16,0.00
2013-8-6,92.5,82.3,73.1,77.0,72.8,65.0,94,75,43,30.01,29.86,13,5,18,0.00
2013-8-7,94.6,82.5,75.3,77.0,74.5,65.0,95,78,38,29.88,29.79,14,5,19,0.00
2013-8-8,82.0,77.3,72.4,75.0,67.2,60.0,92,72,54,30.16,29.82,22,9,31,0.00
2013-8-9,84.7,75.9,63.8,67.0,62.3,58.0,82,64,48,30.19,30.14,15,4,20,0.00
2013-8-10,84.5,75.7,65.6,68.0,64.6,61.0,86,69,47,30.18,30.10,16,4,17,0.00
2013-8-11,87.1,77.5,65.4,71.0,66.2,62.0,90,70,46,30.13,30.04,13,4,16,0.00
2013-8-12,88.0,78.3,65.4,71.0,65.5,60.0,89,67,39,30.07,29.98,12,4,17,0.00
2013-8-13,91.5,78.4,67.9,71.0,65.2,53.0,90,67,30,30.07,29.99,16,4,20,0.00
2013-8-14,85.7,77.9,69.3,70.0,64.9,61.0,90,66,47,30.09,30.04,13,4,17,0.00
2013-8-15,84.8,76.7,67.8,71.0,66.1,61.0,81,70,53,30.11,30.07,14,3,16,0.00
2013-8-16,85.5,76.9,66.7,71.0,66.8,63.0,89,72,53,30.11,30.04,13,3,18,0.00
2013-8-17,84.3,77.0,69.3,72.0,68.8,65.0,89,77,56,30.09,30.04,11,3,15,0.00
2013-8-18,85.4,78.0,69.1,72.0,69.1,66.0,91,75,54,30.10,30.04,11,3,17,0.00
2013-8-19,87.5,78.3,67.8,72.0,68.5,63.0,93,74,47,30.14,30.07,13,3,16,0.00
2013-8-20,80.8,77.4,71.2,71.0,63.1,57.0,84,63,49,30.17,30.11,20,8,23,0.00
2013-8-21,85.7,75.7,64.2,67.0,59.0,50.0,77,58,32,30.15,30.06,14,4,19,0.00
2013-8-22,83.4,74.8,63.4,65.0,61.3,56.0,79,64,50,30.09,29.98,12,3,17,0.00
2013-8-23,84.1,76.2,66.9,70.0,65.7,62.0,86,71,54,30.01,29.97,12,3,16,0.00
2013-8-24,84.0,76.3,65.2,71.0,67.4,62.0,91,75,52,30.00,29.94,13,3,17,0.00
2013-8-25,77.4,75.6,72.8,69.0,66.1,64.0,81,73,66,30.00,29.86,13,6,16,0.00
2013-8-26,75.8,72.8,70.1,71.0,69.4,67.0,95,89,76,29.93,29.81,20,5,21,0.65
2013-8-27,78.5,72.4,65.0,69.0,66.7,63.0,96,83,65,30.01,29.88,11,3,19,0.30
2013-8-28,80.9,73.5,68.2,67.0,63.3,58.0,90,72,46,30.06,29.99,13,4,19,0.00
2013-8-29,80.5,74.4,68.8,65.0,62.8,60.0,84,68,50,30.09,30.02,15,6,22,0.00
2013-8-30,76.4,72.8,69.0,68.0,65.0,63.0,86,77,65,30.12,30.02,17,7,25,0.00
2013-8-31,80.2,75.2,69.2,65.0,61.9,59.0,84,64,52,30.16,30.09,23,11,31,0.00
2013-9-1,80.0,72.9,62.8,65.0,61.6,58.0,87,69,47,30.20,30.13,27,8,32,0.00
2013-9-2,82.7,73.1,62.3,65.0,62.2,59.0,90,70,48,30.24,30.16,14,3,18,0.00
2013-9-3,81.0,72.2,64.1,68.0,64.3,61.0,92,77,55,30.23,30.16,15,3,16,0.00
2013-9-4,81.9,73.5,63.2,69.0,65.2,61.0,95,77,49,30.22,30.09,10,3,16,0.00
2013-9-5,83.1,74.3,65.7,70.0,65.2,59.0,96,75,50,30.09,29.94,16,3,17,0.00
2013-9-6,82.3,73.8,65.0,69.0,65.8,63.0,94,77,56,29.99,29.91,17,4,21,0.00
2013-9-7,80.9,74.4,65.1,69.0,66.7,63.0,93,78,61,30.10,29.99,16,4,19,0.00
2013-9-8,76.1,73.3,70.0,72.0,68.6,64.0,95,85,67,30.19,30.05,8,2,9,0.17
2013-9-9,78.1,72.3,66.3,70.0,67.3,64.0,95,84,70,30.23,30.18,11,3,14,0.00
2013-9-10,79.2,71.6,66.4,70.0,66.7,65.0,97,85,63,30.18,30.06,11,2,19,0.11
2013-9-11,76.2,69.2,62.1,69.0,63.8,60.0,99,84,67,30.15,30.06,34,5,40,0.11
2013-9-12,75.6,69.1,62.6,62.0,60.3,58.0,91,74,57,30.19,30.12,9,2,11,0.00
2013-9-13,78.8,70.7,61.1,65.0,63.0,59.0,94,78,58,30.23,30.18,10,3,15,0.00
2013-9-14,80.0,71.6,60.7,66.0,63.4,60.0,96,77,55,30.23,30.06,12,3,19,0.00
2013-9-15,82.4,72.8,66.9,71.0,67.5,65.0,94,84,60,30.06,29.94,17,4,22,0.00
2013-9-16,80.5,72.1,64.9,70.0,62.7,-99.9,94,80,64,30.02,29.86,13,-9,18,0.00
2013-9-17,74.5,70.9,66.9,70.0,66.2,64.0,98,85,72,30.00,29.86,19,6,23,0.01
2013-9-18,80.8,71.5,61.5,67.0,62.7,60.0,95,76,53,30.00,29.90,12,3,17,0.00
2013-9-19,76.9,69.7,61.1,69.0,62.7,59.0,95,79,64,30.02,29.90,16,3,20,0.00
2013-9-20,77.5,69.4,64.5,66.0,62.4,60.0,89,79,61,30.15,30.02,12,2,18,0.00
2013-9-21,78.0,69.4,59.7,67.0,63.0,58.0,95,81,63,30.25,30.15,11,2,13,0.00
2013-9-22,77.7,68.9,56.8,67.0,60.9,56.0,98,78,57,30.27,30.21,15,3,17,0.01
2013-9-23,76.5,66.5,58.7,65.0,57.6,-99.9,94,78,61,30.23,30.11,10,-21,14,0.00
2013-9-24,78.9,69.3,57.6,65.0,61.2,56.0,95,76,57,30.11,30.02,10,2,13,0.00
2013-9-25,79.5,69.3,59.2,65.0,61.7,57.0,93,78,57,30.03,29.96,11,2,15,0.00
2013-9-26,82.7,70.6,59.9,68.0,64.1,58.0,95,81,57,30.05,29.99,10,2,14,0.00
2013-9-27,80.9,72.2,62.4,72.0,67.3,61.0,98,85,62,30.01,29.87,10,4,15,0.00
2013-9-28,81.1,74.9,69.2,71.0,69.8,67.0,96,85,65,29.86,29.76,18,6,22,0.00
2013-9-29,78.5,74.6,70.5,69.0,64.8,61.0,93,73,56,29.80,29.73,24,11,28,0.00
2013-9-30,80.9,73.8,64.3,67.0,63.4,58.0,93,72,47,29.83,29.74,21,7,25,0.00
2013-10-1,85.1,75.7,65.9,73.0,67.7,64.0,96,78,54,29.87,29.78,18,6,25,0.00
2013-10-2,87.3,77.4,68.3,73.0,69.6,65.0,98,80,48,29.91,29.83,13,3,16,0.01
2013-10-3,78.4,75.6,71.9,74.0,72.4,71.0,96,90,82,30.00,29.89,17,6,23,0.00
2013-10-4,85.8,77.4,74.2,75.0,73.0,71.0,95,87,63,30.05,29.93,14,6,17,0.01
2013-10-5,76.3,71.9,64.9,72.0,65.7,60.0,98,81,66,30.20,30.05,16,6,22,0.01
2013-10-6,75.1,66.2,58.6,62.0,58.6,56.0,95,78,52,30.21,30.16,16,4,19,0.15
2013-10-7,73.7,66.3,58.6,62.0,59.5,57.0,95,80,58,30.22,30.15,11,2,16,0.00
2013-10-8,75.5,58.4,54.5,72.0,39.7,-99.9,100,68,56,30.23,30.17,13,-113,13,0.00
2013-10-9,73.8,39.7,58.8,62.0,-8.9,-99.9,93,40,60,30.22,30.10,11,-426,13,0.00
2013-10-10,74.9,42.2,56.8,63.0,-2.5,-99.9,95,45,63,30.12,29.90,15,-391,17,0.00
2013-10-11,67.6,42.3,60.4,60.0,0.8,-99.9,86,50,72,29.99,29.92,11,-344,14,0.00
2013-10-12,73.7,42.7,63.6,66.0,0.0,-99.9,89,49,70,30.11,29.99,13,-382,18,0.00
2013-10-13,77.8,48.6,58.2,67.0,11.0,-99.9,96,52,60,30.14,30.07,16,-317,16,0.00
2013-10-14,79.0,42.8,58.0,66.0,-0.9,-99.9,97,48,61,30.15,30.09,18,-395,18,0.00
2013-10-15,76.9,46.0,65.1,67.0,3.6,-99.9,94,47,58,30.14,30.01,18,-362,23,0.00
2013-10-16,84.2,50.7,64.2,69.0,9.4,-99.9,95,46,47,30.11,30.02,11,-335,15,0.00
2013-10-17,78.4,50.0,62.2,67.0,13.5,-99.9,95,54,65,30.15,30.08,11,-312,16,0.00
2013-10-18,78.7,46.6,61.7,69.0,7.5,-99.9,96,53,66,30.08,29.98,8,-350,13,0.00
2013-10-19,78.3,53.6,61.1,69.0,22.0,-99.9,97,61,70,30.09,30.00,8,-254,14,0.00
2013-10-20,77.7,48.9,64.4,68.0,12.6,-99.9,98,56,68,30.14,30.05,14,-321,17,0.00
2013-10-21,79.0,47.6,60.9,70.0,10.4,-99.9,99,57,68,30.14,30.02,11,-340,13,0.00
2013-10-22,79.5,45.8,66.7,72.0,5.5,-99.9,99,54,65,30.02,29.89,16,-370,20,0.00
2013-10-23,75.9,40.6,65.9,70.0,-7.5,-99.9,93,44,62,30.06,29.91,14,-434,21,0.00
2013-10-24,79.2,40.6,58.9,68.0,-6.4,-99.9,98,45,51,30.09,30.02,10,-427,13,0.00
2013-10-25,77.4,51.2,60.5,70.0,19.3,-99.9,99,62,77,30.06,29.99,12,-288,16,0.00
2013-10-26,80.0,48.7,70.6,72.0,11.2,-99.9,97,57,74,30.11,29.99,12,-345,17,0.01
2013-10-27,81.0,45.9,62.6,70.0,5.7,-99.9,100,54,68,30.23,30.12,7,-369,10,0.00
2013-10-28,79.6,47.4,64.9,69.0,7.1,-99.9,100,54,62,30.20,29.97,18,-343,18,0.00
2013-10-29,72.0,37.2,59.2,67.0,-8.3,-99.9,99,50,75,30.05,29.91,31,-428,40,0.09
2013-10-30,64.1,40.4,61.6,52.0,-4.1,-99.9,69,39,55,30.16,30.02,28,-344,39,0.00
2013-10-31,67.1,42.3,51.8,54.0,1.5,-99.9,81,44,59,30.23,30.14,20,-325,23,0.00
2013-11-1,73.3,47.1,54.4,56.0,10.1,-99.9,88,47,48,30.23,30.14,10,-280,17,0.00
2013-11-2,72.2,46.0,56.5,64.0,9.7,-99.9,95,54,62,30.15,30.04,14,-311,18,0.00
2013-11-3,75.4,46.7,60.7,66.0,9.8,-99.9,96,53,63,30.07,30.01,16,-316,18,0.00
2013-11-4,69.7,46.5,58.7,61.0,9.7,-99.9,97,50,53,30.03,29.69,25,-289,35,0.00
2013-11-5,76.1,53.6,65.3,63.0,17.3,-99.9,73,46,53,29.89,29.74,27,-250,34,0.00
2013-11-6,79.2,49.7,61.1,66.0,13.1,-99.9,97,52,48,30.12,29.90,13,-297,18,0.00
2013-11-7,77.9,52.1,59.1,68.0,23.3,-99.9,100,63,52,30.12,30.04,13,-242,18,0.00
2013-11-8,72.0,48.2,61.1,66.0,15.2,-99.9,99,57,62,30.07,29.98,17,-273,22,0.00
2013-11-9,65.1,43.6,53.4,61.0,12.9,-99.9,95,62,79,30.20,30.07,12,-276,17,0.04
2013-11-10,69.9,45.4,54.3,53.0,4.8,-99.9,81,42,50,30.19,30.05,24,-301,33,0.00
2013-11-11,65.7,41.9,60.5,52.0,-4.8,-99.9,68,33,32,30.15,30.08,23,-329,32,0.00
2013-11-12,65.8,44.4,59.9,50.0,1.6,-99.9,67,36,36,30.13,30.08,34,-285,48,0.00
2013-11-13,66.9,43.2,56.7,58.0,4.5,-99.9,83,47,54,30.16,30.09,20,-309,33,0.00
2013-11-14,63.7,39.2,56.6,57.0,-1.0,-99.9,83,50,72,30.21,30.15,11,-354,14,0.00
2013-11-15,56.2,32.1,46.9,50.0,-4.9,-99.9,91,56,78,30.15,30.02,15,-339,19,0.31
2013-11-16,59.3,37.0,47.3,55.0,2.5,-99.9,97,61,75,30.05,29.86,10,-327,17,0.38
2013-11-17,53.2,32.7,46.7,52.0,-4.3,-99.9,100,62,96,30.01,29.79,8,-366,12,0.63
2013-11-18,60.3,36.6,52.3,53.0,-1.9,-99.9,97,53,62,29.78,29.45,20,-341,24,0.00
2013-11-19,59.3,37.2,53.4,56.0,1.3,-99.9,95,59,81,29.84,29.39,25,-333,28,0.28
2013-11-20,53.4,33.8,41.4,52.0,3.7,-99.9,95,65,84,29.98,29.83,12,-281,16,0.21
2013-11-21,58.7,39.2,40.3,46.0,3.9,-99.9,94,50,59,29.95,29.63,27,-269,35,0.00
2013-11-22,53.5,23.4,42.4,42.0,-28.6,-99.9,83,40,66,29.77,29.56,10,-486,16,0.09
2013-11-23,53.4,29.6,41.4,44.0,-10.2,-99.9,93,53,66,29.84,29.71,9,-364,11,0.03
2013-11-24,54.3,36.1,40.7,48.0,3.2,-99.9,97,58,70,30.01,29.83,15,-286,20,0.01
2013-11-25,55.0,33.4,48.3,46.0,-8.9,-99.9,88,45,60,30.18,30.01,21,-358,30,0.01
2013-11-26,50.6,35.4,48.6,41.0,-0.8,-99.9,74,48,59,30.25,30.16,26,-276,36,0.00
2013-11-27,50.0,32.2,45.0,44.0,-2.6,-99.9,91,57,71,30.27,30.20,24,-307,26,0.04
2013-11-28,52.8,32.9,43.2,44.0,-3.3,-99.9,89,53,60,30.37,30.28,18,-311,25,0.00
2013-11-29,49.7,32.8,44.7,46.0,-0.4,-99.9,93,60,73,30.36,30.27,15,-300,20,0.02
2013-11-30,49.9,32.6,38.6,46.0,1.4,-99.9,94,64,79,30.27,29.88,17,-290,22,0.31
2013-12-1,53.0,37.1,47.2,51.0,7.1,-99.9,97,63,77,30.05,29.90,24,-265,33,0.28
2013-12-2,55.2,34.6,50.9,49.0,-4.1,-99.9,86,52,76,30.18,30.03,21,-339,28,0.00
2013-12-3,61.8,40.0,49.4,56.0,7.0,-99.9,92,60,78,30.31,30.16,15,-296,26,0.00
2013-12-4,62.1,37.0,44.7,54.0,0.3,-99.9,95,53,44,30.37,30.30,7,-315,8,0.00
2013-12-5,65.9,36.7,40.3,50.0,-0.5,-99.9,97,52,33,30.34,30.27,7,-309,11,0.00
2013-12-6,61.5,37.7,38.1,52.0,5.9,-99.9,98,59,60,30.32,30.25,10,-274,11,0.00
2013-12-7,63.1,35.8,38.0,50.0,-1.3,-99.9,97,53,37,30.33,30.25,6,-315,10,0.00
2013-12-8,60.4,35.9,36.0,53.0,1.8,-99.9,100,59,61,30.45,30.32,6,-309,9,0.00
2013-12-9,59.9,38.0,42.8,49.0,7.0,-99.9,95,60,67,30.49,30.44,5,-269,8,0.00
2013-12-10,59.6,35.1,40.0,50.0,-2.1,-99.9,97,54,65,30.58,30.48,6,-332,8,0.00
2013-12-11,60.5,36.5,44.7,54.0,2.5,-99.9,96,59,72,30.59,30.51,8,-312,11,0.00
2013-12-12,60.3,39.8,41.7,53.0,11.8,-99.9,98,65,67,30.53,30.39,6,-249,9,0.00
2013-12-13,61.5,35.0,37.9,53.0,0.3,-99.9,98,58,55,30.40,30.28,7,-311,8,0.00
2013-12-14,59.0,36.6,41.9,53.0,4.2,-99.9,97,61,67,30.55,30.38,15,-295,16,0.00
2013-12-15,63.1,35.4,38.1,55.0,-4.8,-99.9,99,50,55,30.56,30.49,11,-354,13,0.00
2013-12-16,59.9,38.1,41.6,53.0,7.4,-99.9,97,63,69,30.54,30.46,8,-276,10,0.00
2013-12-17,59.8,34.9,47.4,55.0,-3.8,-99.9,96,56,79,30.46,30.34,9,-366,14,0.00
2013-12-18,61.8,33.9,42.8,54.0,-6.4,-99.9,99,54,62,30.35,30.25,7,-374,9,0.00
2013-12-19,60.3,37.1,47.7,57.0,1.8,-99.9,99,62,85,30.26,29.87,16,-338,25,0.28
2013-12-20,53.8,28.2,50.8,52.0,-17.4,-99.9,100,54,89,30.43,29.82,34,-444,50,0.00
2013-12-21,59.9,33.5,52.0,57.0,-7.4,-99.9,99,56,88,30.51,30.42,11,-398,14,0.01
2013-12-22,61.8,36.2,45.4,57.0,-0.0,-99.9,100,59,73,30.50,30.41,5,-341,7,0.00
2013-12-23,60.1,33.6,41.9,55.0,-5.1,-99.9,100,58,76,30.42,30.24,11,-369,13,0.00
2013-12-24,60.6,39.5,49.6,55.0,4.4,-99.9,98,58,78,30.24,29.86,26,-311,31,0.00
2013-12-25,60.0,35.1,53.2,57.0,-5.1,-99.9,97,55,75,29.86,29.39,29,-373,36,0.20
2013-12-26,56.0,34.1,50.3,41.0,-12.4,-99.9,68,36,49,29.96,29.46,34,-356,47,0.00
2013-12-27,64.1,38.7,48.4,55.0,2.5,-99.9,96,55,60,30.02,29.93,16,-319,20,0.00
2013-12-28,65.2,38.7,52.0,57.0,0.2,-99.9,96,51,62,30.09,29.87,20,-332,25,0.00
2013-12-29,56.0,31.4,39.4,50.0,-8.6,-99.9,96,51,58,30.40,30.09,9,-360,13,0.00
2013-12-30,57.2,34.9,38.4,46.0,-1.0,-99.9,97,52,53,30.41,30.30,12,-298,13,0.00
2013-12-31,57.3,35.1,39.1,50.0,0.3,-99.9,94,57,67,30.31,30.11,14,-310,18,0.01
2014-1-1,61.9,37.9,46.7,52.0,3.6,-99.9,97,58,61,30.14,30.06,12,-304,14,0.00
2014-1-2,61.9,34.6,55.3,56.0,-9.5,-99.9,96,49,69,30.05,29.97,19,-405,22,0.00